This is the latest recevied weather packets stored in our database for station/object K7TSD. If no packets are shown the sender has not sent any weather packets the latest 10 day(s).
| Time | Temp. | Humidity | Pressure | Rain* | Wind** | Luminosity | Snow |
|---|---|---|---|---|---|---|---|
| 1777455860 | 0.56° C | 80% | 1016.5 hPa | 0 mm | - | 0 W/m² | - |
| 1777455557 | 0.56° C | 80% | 1016.3 hPa | 0 mm | - | 0 W/m² | - |
| 1777455253 | 1.11° C | 80% | 1016.5 hPa | 0 mm | - | 0 W/m² | - |
| 1777454950 | 0.56° C | 80% | 1016.3 hPa | 0 mm | - | 0 W/m² | - |
| 1777454647 | 0.56° C | 80% | 1016.6 hPa | 0 mm | - | 0 W/m² | - |
| 1777454343 | 0.56° C | 80% | 1016.5 hPa | 0 mm | - | 0 W/m² | - |
| 1777454040 | 1.11° C | 79% | 1016.4 hPa | 0 mm | - | 0 W/m² | - |
| 1777453737 | 1.67° C | 78% | 1016.4 hPa | 0 mm | - | 0 W/m² | - |
| 1777453434 | 1.67° C | 78% | 1016.3 hPa | 0 mm | - | 0 W/m² | - |
| 1777453130 | 1.11° C | 79% | 1016.1 hPa | 0 mm | - | 0 W/m² | - |
| 1777452828 | 1.11° C | 79% | 1016.3 hPa | 0 mm | - | 0 W/m² | - |
| 1777452524 | 1.11° C | 80% | 1016.6 hPa | 0 mm | - | 0 W/m² | - |
| 1777452220 | 1.11° C | 80% | 1016.5 hPa | 0 mm | - | 0 W/m² | - |
| 1777451920 | 1.11° C | 80% | 1016.4 hPa | 0 mm | - | 0 W/m² | - |
| 1777451618 | 1.67° C | 80% | 1016.4 hPa | 0 mm | - | 0 W/m² | - |
| 1777451318 | 1.67° C | 79% | 1016.4 hPa | 0 mm | - | 0 W/m² | - |
| 1777451014 | 2.22° C | 78% | 1016.4 hPa | 0 mm | - | 0 W/m² | - |
| 1777450710 | 2.78° C | 76% | 1016.4 hPa | 0 mm | - | 0 W/m² | - |
| 1777450406 | 3.33° C | 73% | 1016.4 hPa | 0 mm | - | 0 W/m² | - |
| 1777450103 | 3.89° C | 72% | 1016.4 hPa | 0 mm | - | 0 W/m² | - |
| 1777449799 | 3.89° C | 71% | 1016.7 hPa | 0 mm | - | 0 W/m² | - |
| 1777449495 | 3.33° C | 73% | 1016.4 hPa | 0 mm | - | 0 W/m² | - |
| 1777449191 | 3.33° C | 75% | 1016.6 hPa | 0 mm | - | 0 W/m² | - |
| 1777448887 | 3.33° C | 75% | 1016.6 hPa | 0 mm | - | 0 W/m² | - |
| 1777448584 | 3.33° C | 77% | 1016.6 hPa | 0 mm | - | 0 W/m² | - |
* Rain latest hour (hover to see other rain measurements)
** Current wind speed in m/s (hover to see current wind gust speed)